Time;durP1;ratioP1;P1;durP2;ratioP2;P2;SDS_P1;SDS_P2;PMS_P1;PMS_P2;Temp;Humidity;BMP_temperature;BMP_pressure;BME280_temperature;BME280_humidity;BME280_pressure;Samples;Min_cycle;Max_cycle;Signal;HPM_P1;HPM_P2
2022/09/19 00:01:12;;;;;;;17.98;2.47;;;10.60;99.90;;;;;;5018703;28;20042;-87
2022/09/19 00:03:50;;;;;;;20.60;2.20;;;10.70;99.90;;;;;;5019891;28;20046;-91
2022/09/19 00:06:16;;;;;;;26.20;2.35;;;10.70;99.90;;;;;;5051710;28;20045;-84
2022/09/19 00:08:43;;;;;;;22.73;2.60;;;10.70;99.90;;;;;;5018611;28;20099;-86
2022/09/19 00:11:11;;;;;;;17.45;2.05;;;10.70;99.90;;;;;;5019899;28;20064;-87
2022/09/19 00:13:45;;;;;;;17.48;2.50;;;10.70;99.90;;;;;;5018716;28;20065;-87
2022/09/19 00:16:12;;;;;;;14.82;2.25;;;10.90;99.90;;;;;;5018617;28;20057;-90
2022/09/19 00:18:38;;;;;;;19.73;2.33;;;10.70;99.90;;;;;;5018836;28;20133;-90
2022/09/19 00:21:04;;;;;;;19.42;2.22;;;10.70;99.90;;;;;;5019106;28;20139;-87
2022/09/19 00:26:17;;;;;;;23.05;2.00;;;10.70;99.90;;;;;;5016923;28;20049;-84
2022/09/19 00:28:45;;;;;;;19.48;1.77;;;10.70;99.90;;;;;;5016475;28;20045;-82
2022/09/19 00:31:18;;;;;;;16.25;1.80;;;10.80;99.90;;;;;;5015503;28;20510;-82
2022/09/19 00:33:46;;;;;;;17.65;1.98;;;10.70;99.90;;;;;;5032514;28;20052;-82
2022/09/19 00:36:13;;;;;;;9.60;1.50;;;10.70;99.90;;;;;;5016439;28;20050;-86
2022/09/19 00:38:40;;;;;;;13.15;2.00;;;10.80;99.90;;;;;;5047986;28;20081;-83
2022/09/19 00:41:06;;;;;;;13.32;1.75;;;10.70;99.90;;;;;;5016204;28;20058;-84
2022/09/19 00:43:48;;;;;;;15.50;1.63;;;10.80;99.90;;;;;;5015982;28;20144;-87
2022/09/19 00:46:14;;;;;;;15.48;2.10;;;10.70;99.90;;;;;;5048460;28;20454;-84
2022/09/19 00:48:42;;;;;;;17.00;2.35;;;10.80;99.90;;;;;;5015071;28;20045;-85
2022/09/19 00:51:28;;;;;;;20.00;1.67;;;10.80;99.90;;;;;;5015954;28;20415;-84
2022/09/19 00:53:54;;;;;;;16.10;2.10;;;10.70;99.90;;;;;;5047561;28;20496;-83
2022/09/19 00:56:22;;;;;;;16.98;2.03;;;10.80;99.90;;;;;;5015990;28;20085;-83
2022/09/19 00:58:48;;;;;;;18.45;2.00;;;10.90;99.90;;;;;;5048160;28;20056;-83
2022/09/19 01:01:15;;;;;;;23.17;2.33;;;10.80;99.90;;;;;;5015776;28;20403;-83
2022/09/19 01:03:44;;;;;;;27.13;2.50;;;10.80;99.90;;;;;;5015712;28;20057;-83
2022/09/19 01:06:21;;;;;;;25.27;2.30;;;10.80;99.90;;;;;;5015581;28;20514;-83
2022/09/19 01:09:05;;;;;;;24.67;2.22;;;10.80;99.90;;;;;;5014332;28;20089;-84
2022/09/19 01:11:57;;;;;;;22.92;2.80;;;10.90;99.90;;;;;;5047670;28;20089;-84
2022/09/19 01:14:41;;;;;;;24.33;2.20;;;10.80;99.90;;;;;;5014599;28;20058;-84
2022/09/19 01:17:20;;;;;;;27.10;2.90;;;10.90;99.90;;;;;;5014656;28;20050;-83
2022/09/19 01:20:16;;;;;;;30.95;2.80;;;10.90;99.90;;;;;;5015712;28;20050;-84
2022/09/19 01:23:06;;;;;;;32.97;3.13;;;10.80;99.90;;;;;;5015574;28;20111;-84
2022/09/19 01:25:58;;;;;;;29.08;2.90;;;10.80;99.90;;;;;;5014451;28;20411;-86
2022/09/19 01:28:36;;;;;;;23.40;2.53;;;10.80;99.90;;;;;;5030782;28;20083;-85
2022/09/19 01:31:17;;;;;;;25.02;2.40;;;10.80;99.90;;;;;;5015139;28;20499;-82
2022/09/19 01:34:05;;;;;;;26.60;2.65;;;10.80;99.90;;;;;;5047120;28;20120;-84
2022/09/19 01:36:40;;;;;;;19.48;2.35;;;10.80;99.90;;;;;;5015208;28;20111;-84
2022/09/19 01:39:09;;;;;;;22.58;2.53;;;10.70;99.90;;;;;;5013833;28;20046;-88
2022/09/19 01:41:35;;;;;;;18.67;2.42;;;10.80;99.90;;;;;;5030831;28;20050;-85
2022/09/19 01:44:05;;;;;;;29.70;3.22;;;10.80;99.90;;;;;;5014751;28;20092;-93
2022/09/19 01:46:58;;;;;;;22.45;2.50;;;10.70;99.90;;;;;;5015253;28;20064;-85
2022/09/19 01:50:01;;;;;;;22.48;2.28;;;10.70;99.90;;;;;;5013923;28;20049;-83
2022/09/19 01:52:54;;;;;;;22.02;2.40;;;10.70;99.90;;;;;;5013868;28;20057;-82
2022/09/19 01:55:26;;;;;;;29.50;2.97;;;10.80;99.90;;;;;;5014823;28;20099;-82
2022/09/19 01:58:04;;;;;;;22.42;2.22;;;10.80;99.90;;;;;;5047153;28;20501;-84
2022/09/19 02:00:31;;;;;;;23.92;3.28;;;10.90;99.90;;;;;;5013535;28;20049;-86
2022/09/19 02:03:03;;;;;;;31.80;3.05;;;10.80;99.90;;;;;;5013549;28;20122;-88
2022/09/19 02:05:44;;;;;;;27.00;2.90;;;10.80;99.90;;;;;;5030683;28;20529;-82
2022/09/19 02:08:29;;;;;;;29.58;3.10;;;10.80;99.90;;;;;;5013590;28;20042;-86
2022/09/19 02:11:06;;;;;;;27.75;2.65;;;10.80;99.90;;;;;;5014485;28;20435;-87
2022/09/19 02:13:34;;;;;;;19.83;2.08;;;10.80;99.90;;;;;;5013509;28;20081;-84
2022/09/19 02:16:13;;;;;;;23.40;2.60;;;10.70;99.90;;;;;;5014491;28;20045;-84
2022/09/19 02:18:49;;;;;;;18.55;2.03;;;10.70;99.90;;;;;;5046823;28;20407;-84
2022/09/19 02:21:18;;;;;;;19.20;2.45;;;10.70;99.90;;;;;;5014159;28;20041;-86
2022/09/19 02:23:52;;;;;;;21.85;2.65;;;10.60;99.90;;;;;;5013512;28;20145;-83
2022/09/19 02:26:21;;;;;;;33.40;2.95;;;10.50;99.90;;;;;;5014790;28;20057;-84
2022/09/19 02:28:54;;;;;;;23.73;3.25;;;10.60;99.90;;;;;;5014430;28;20111;-85
2022/09/19 02:31:26;;;;;;;23.08;2.33;;;10.40;99.90;;;;;;5046412;28;20049;-84
2022/09/19 02:33:51;;;;;;;30.33;3.13;;;10.50;99.90;;;;;;5013979;28;20048;-85
2022/09/19 02:36:50;;;;;;;17.52;2.67;;;10.40;99.90;;;;;;5013055;28;20046;-84
2022/09/19 02:39:22;;;;;;;17.13;2.30;;;10.30;99.90;;;;;;5012930;28;20495;-84
2022/09/19 02:42:16;;;;;;;21.08;2.38;;;10.30;99.90;;;;;;5046252;28;20133;-83
2022/09/19 02:44:48;;;;;;;29.15;2.65;;;10.30;99.90;;;;;;5013260;28;20542;-85
2022/09/19 02:47:19;;;;;;;26.30;2.80;;;10.30;99.90;;;;;;5013014;28;20055;-84
2022/09/19 02:49:57;;;;;;;30.90;2.72;;;10.30;99.90;;;;;;5013576;28;20042;-83
2022/09/19 02:52:33;;;;;;;24.60;2.47;;;10.30;99.90;;;;;;5012721;28;20081;-84
2022/09/19 02:55:17;;;;;;;21.17;2.40;;;10.30;99.90;;;;;;5012545;28;20409;-84
2022/09/19 02:57:46;;;;;;;26.40;2.97;;;10.30;99.90;;;;;;5013081;28;20049;-83
2022/09/19 03:00:13;;;;;;;27.20;2.38;;;10.30;99.90;;;;;;5012753;28;20049;-84
2022/09/19 03:02:46;;;;;;;17.55;2.75;;;10.30;99.90;;;;;;5013740;28;20042;-86
2022/09/19 03:05:19;;;;;;;19.17;2.58;;;10.30;99.90;;;;;;5012428;28;20092;-84
2022/09/19 03:08:15;;;;;;;30.35;2.67;;;10.20;99.90;;;;;;5013830;28;20089;-83
2022/09/19 03:10:48;;;;;;;30.20;2.90;;;10.20;99.90;;;;;;5012162;28;20060;-84
2022/09/19 03:13:14;;;;;;;21.15;2.30;;;10.20;99.90;;;;;;5013637;28;20053;-82
2022/09/19 03:15:56;;;;;;;21.65;2.30;;;10.20;99.90;;;;;;5013355;28;20133;-84
2022/09/19 03:18:25;;;;;;;32.50;2.70;;;10.20;99.90;;;;;;5045961;28;20057;-84
2022/09/19 03:21:02;;;;;;;22.80;2.53;;;10.20;99.90;;;;;;5013697;28;20049;-84
2022/09/19 03:23:45;;;;;;;33.20;3.40;;;10.30;99.90;;;;;;5045767;28;20124;-85
2022/09/19 03:26:16;;;;;;;24.45;2.70;;;10.30;99.90;;;;;;5013513;28;20049;-84
2022/09/19 03:28:42;;;;;;;28.58;2.60;;;10.30;99.90;;;;;;5045732;28;20045;-84
2022/09/19 03:31:08;;;;;;;36.75;3.50;;;10.30;99.90;;;;;;5013457;28;20041;-84
2022/09/19 03:33:34;;;;;;;28.63;2.80;;;10.30;99.90;;;;;;5013514;28;20161;-85
2022/09/19 03:36:07;;;;;;;22.80;2.55;;;10.30;99.90;;;;;;5012206;28;20057;-85
2022/09/19 03:38:36;;;;;;;27.50;2.63;;;10.30;99.90;;;;;;5044717;28;20046;-85
2022/09/19 03:41:02;;;;;;;29.58;3.10;;;10.30;99.90;;;;;;5045477;28;20042;-84
2022/09/19 03:43:29;;;;;;;22.50;2.35;;;10.20;99.90;;;;;;5045260;28;20050;-84
2022/09/19 03:45:56;;;;;;;28.70;3.10;;;10.20;99.90;;;;;;5013345;28;20054;-83
2022/09/19 03:48:22;;;;;;;18.25;2.33;;;10.20;99.90;;;;;;5013354;28;20052;-85
2022/09/19 03:50:48;;;;;;;45.95;2.90;;;10.20;99.90;;;;;;5013325;28;20184;-84
2022/09/19 03:53:15;;;;;;;31.38;3.47;;;10.20;99.90;;;;;;5044879;28;20129;-83
2022/09/19 03:55:41;;;;;;;27.85;2.50;;;10.10;99.90;;;;;;5012557;28;20041;-83
2022/09/19 03:58:10;;;;;;;23.65;3.10;;;10.10;99.90;;;;;;5012154;28;20116;-83
2022/09/19 04:00:36;;;;;;;21.45;2.28;;;10.10;99.90;;;;;;5013300;28;20092;-85
2022/09/19 04:03:02;;;;;;;41.70;4.00;;;10.10;99.90;;;;;;5015444;28;20041;-83
2022/09/19 04:05:27;;;;;;;32.28;2.75;;;10.10;99.90;;;;;;5016778;28;20443;-85
2022/09/19 04:07:54;;;;;;;39.63;4.18;;;10.20;99.90;;;;;;4999232;28;20041;-82
2022/09/19 04:10:20;;;;;;;28.95;2.30;;;10.30;99.90;;;;;;5016600;28;20116;-83
2022/09/19 04:12:48;;;;;;;28.35;2.75;;;10.40;99.90;;;;;;5015502;28;20062;-82
2022/09/19 04:15:14;;;;;;;29.30;3.42;;;10.50;99.90;;;;;;5048698;28;20100;-84
2022/09/19 04:17:41;;;;;;;27.98;2.90;;;10.50;99.90;;;;;;5015862;28;20484;-83
2022/09/19 04:20:09;;;;;;;33.20;2.80;;;10.60;99.90;;;;;;5015489;28;20081;-87
2022/09/19 04:22:37;;;;;;;21.45;2.60;;;10.60;99.90;;;;;;5032795;28;20046;-84
2022/09/19 04:25:04;;;;;;;28.67;3.33;;;10.70;99.90;;;;;;5015485;28;20092;-86
2022/09/19 04:27:30;;;;;;;24.80;2.63;;;10.70;99.90;;;;;;5016515;28;20050;-86
2022/09/19 04:29:55;;;;;;;29.05;2.63;;;10.80;99.90;;;;;;5048604;28;20046;-83
2022/09/19 04:32:21;;;;;;;30.15;3.10;;;10.70;99.90;;;;;;5016070;28;20050;-86
2022/09/19 04:34:47;;;;;;;25.38;3.53;;;10.70;99.90;;;;;;5015045;28;20050;-85
2022/09/19 04:37:14;;;;;;;34.83;3.00;;;10.70;99.90;;;;;;5015424;28;20133;-85
2022/09/19 04:39:41;;;;;;;32.00;2.95;;;10.60;99.90;;;;;;5016044;28;20184;-84
2022/09/19 04:42:06;;;;;;;30.65;3.13;;;10.60;99.90;;;;;;5015311;28;20503;-85
2022/09/19 04:44:32;;;;;;;24.60;2.70;;;10.50;99.90;;;;;;5016148;28;20092;-86
2022/09/19 04:46:58;;;;;;;27.15;2.65;;;10.40;99.90;;;;;;5015956;28;20041;-85
2022/09/19 04:49:29;;;;;;;15.60;2.00;;;10.40;99.90;;;;;;4998556;28;20049;-85
2022/09/19 04:51:56;;;;;;;30.63;3.28;;;10.30;99.90;;;;;;5015321;28;20053;-85
2022/09/19 04:54:22;;;;;;;37.85;2.88;;;10.30;99.90;;;;;;5016154;28;20046;-85
2022/09/19 04:56:48;;;;;;;27.45;3.08;;;10.20;99.90;;;;;;5015901;28;20395;-85
2022/09/19 04:59:13;;;;;;;25.55;3.00;;;10.10;99.90;;;;;;5014886;28;20492;-85
2022/09/19 05:01:39;;;;;;;27.23;2.75;;;10.00;99.90;;;;;;5014727;28;20401;-85
2022/09/19 05:04:05;;;;;;;22.10;2.65;;;10.00;99.90;;;;;;5015566;28;20546;-85
2022/09/19 05:06:31;;;;;;;26.63;2.53;;;10.00;99.90;;;;;;5031482;28;20395;-85
2022/09/19 05:08:57;;;;;;;30.40;3.00;;;9.90;99.90;;;;;;5015279;28;20082;-84
2022/09/19 05:11:24;;;;;;;26.05;3.13;;;9.80;99.90;;;;;;5015588;28;20089;-85
2022/09/19 05:13:52;;;;;;;25.52;2.60;;;9.90;99.90;;;;;;5014913;28;20133;-84
2022/09/19 05:16:18;;;;;;;28.55;3.33;;;9.70;99.90;;;;;;4998666;28;20050;-84
2022/09/19 05:18:45;;;;;;;24.92;2.90;;;9.70;99.90;;;;;;5015259;28;20448;-84
2022/09/19 05:21:13;;;;;;;22.38;2.75;;;9.70;99.90;;;;;;5014573;28;20523;-85
2022/09/19 05:23:39;;;;;;;22.58;2.40;;;9.60;99.90;;;;;;5015004;28;20053;-85
2022/09/19 05:26:08;;;;;;;28.70;2.42;;;9.60;99.90;;;;;;5015671;28;20096;-85
2022/09/19 05:28:34;;;;;;;24.25;2.85;;;9.60;99.90;;;;;;5015523;28;20469;-84
2022/09/19 05:31:05;;;;;;;32.35;2.70;;;9.60;99.90;;;;;;5047090;28;20484;-87
2022/09/19 05:33:31;;;;;;;33.00;2.47;;;9.60;99.90;;;;;;5014141;28;20042;-84
2022/09/19 05:36:00;;;;;;;28.73;3.00;;;9.60;99.90;;;;;;5046971;28;20077;-85
2022/09/19 05:38:30;;;;;;;31.50;2.88;;;9.50;99.90;;;;;;5014364;28;20054;-85
2022/09/19 05:40:58;;;;;;;27.58;2.70;;;9.50;99.90;;;;;;5015130;28;20085;-84
2022/09/19 05:43:24;;;;;;;29.17;2.85;;;9.50;99.90;;;;;;5013801;28;20046;-84
2022/09/19 05:45:52;;;;;;;25.45;2.90;;;9.50;99.90;;;;;;5013875;28;20142;-85
2022/09/19 05:48:18;;;;;;;26.35;2.65;;;9.50;99.90;;;;;;5030706;28;20054;-84
2022/09/19 05:50:44;;;;;;;29.15;2.85;;;9.50;99.90;;;;;;5014962;28;20099;-85
2022/09/19 05:55:55;;;;;;;36.55;3.25;;;9.60;99.90;;;;;;5033086;28;20506;-85
2022/09/19 05:58:20;;;;;;;29.08;3.15;;;9.70;99.90;;;;;;5046621;28;20050;-85
2022/09/19 06:00:47;;;;;;;29.80;3.50;;;9.70;99.90;;;;;;5013628;28;20058;-86
2022/09/19 06:03:17;;;;;;;21.38;2.78;;;9.70;99.90;;;;;;5013845;28;20046;-85
2022/09/19 06:05:45;;;;;;;17.58;2.08;;;9.80;99.90;;;;;;5014726;28;20085;-85
2022/09/19 06:08:13;;;;;;;19.58;2.42;;;9.80;99.90;;;;;;5013527;28;20045;-85
2022/09/19 06:10:41;;;;;;;30.90;3.08;;;9.80;99.90;;;;;;5014230;28;20613;-85
2022/09/19 06:13:12;;;;;;;18.92;2.60;;;9.70;99.90;;;;;;5014251;28;20049;-85
2022/09/19 06:15:37;;;;;;;26.88;2.92;;;9.80;99.90;;;;;;5015256;28;20042;-85
2022/09/19 06:18:03;;;;;;;28.98;2.53;;;9.80;99.90;;;;;;5013436;28;20514;-85
2022/09/19 06:20:29;;;;;;;18.70;2.80;;;9.80;99.90;;;;;;5030017;28;20180;-85
2022/09/19 06:23:02;;;;;;;19.70;2.67;;;9.70;99.90;;;;;;5013142;28;20096;-85
2022/09/19 06:25:28;;;;;;;20.92;2.80;;;9.70;99.90;;;;;;5012623;28;20046;-86
2022/09/19 06:28:04;;;;;;;23.10;2.90;;;9.70;99.90;;;;;;5046355;28;20049;-86
2022/09/19 06:30:30;;;;;;;19.33;2.53;;;9.80;99.90;;;;;;5014383;28;20124;-86
2022/09/19 06:32:56;;;;;;;18.38;2.45;;;9.80;99.90;;;;;;5012997;28;20048;-86
2022/09/19 06:35:24;;;;;;;24.65;2.80;;;9.80;99.90;;;;;;5029595;28;20045;-86
2022/09/19 06:37:49;;;;;;;20.23;2.70;;;9.80;99.90;;;;;;5014028;28;20054;-85
2022/09/19 06:40:22;;;;;;;25.98;3.05;;;9.90;99.90;;;;;;5012886;28;20050;-85
2022/09/19 06:42:48;;;;;;;18.98;2.53;;;9.80;99.90;;;;;;5030266;28;20045;-85
2022/09/19 06:45:13;;;;;;;18.05;2.25;;;9.90;99.90;;;;;;5013125;28;20538;-86
2022/09/19 06:47:39;;;;;;;24.52;2.95;;;9.90;99.90;;;;;;5012844;28;20503;-85
2022/09/19 06:50:05;;;;;;;13.55;1.67;;;10.00;99.90;;;;;;5013924;28;20046;-86
2022/09/19 06:52:31;;;;;;;25.02;2.65;;;10.00;99.90;;;;;;5012447;28;20046;-86
2022/09/19 06:54:58;;;;;;;21.42;2.63;;;10.10;99.90;;;;;;5045829;28;20077;-85
2022/09/19 06:57:23;;;;;;;13.48;2.28;;;10.10;99.90;;;;;;5014108;28;20128;-86
2022/09/19 06:59:49;;;;;;;23.90;2.40;;;10.20;99.90;;;;;;4996745;28;20166;-87
2022/09/19 07:02:15;;;;;;;19.60;2.67;;;10.30;99.90;;;;;;5013103;28;20045;-86
2022/09/19 07:04:41;;;;;;;19.75;2.92;;;10.40;99.90;;;;;;5013890;28;20078;-86
2022/09/19 07:07:06;;;;;;;24.42;3.15;;;10.30;99.90;;;;;;5012458;28;20089;-86
2022/09/19 07:09:32;;;;;;;23.08;2.58;;;10.40;99.90;;;;;;5045788;28;20391;-87
2022/09/19 07:12:01;;;;;;;22.70;2.78;;;10.40;99.90;;;;;;5013849;28;20061;-86
2022/09/19 07:14:27;;;;;;;24.67;2.67;;;10.40;99.90;;;;;;5013808;28;20506;-86
2022/09/19 07:16:52;;;;;;;24.88;2.50;;;10.50;99.90;;;;;;4996281;28;20046;-84
2022/09/19 07:19:18;;;;;;;16.05;1.75;;;10.60;99.90;;;;;;5013887;28;20565;-86
2022/09/19 07:21:44;;;;;;;18.20;2.42;;;10.50;99.90;;;;;;5013503;28;20050;-86
2022/09/19 07:24:10;;;;;;;16.23;1.83;;;10.60;99.90;;;;;;5014031;28;20053;-86
2022/09/19 07:26:35;;;;;;;13.40;1.80;;;10.60;99.90;;;;;;5029493;28;20057;-86
2022/09/19 07:29:01;;;;;;;11.20;1.88;;;10.70;99.90;;;;;;5046204;28;20050;-85
2022/09/19 07:31:28;;;;;;;15.95;1.77;;;10.70;99.90;;;;;;5012944;28;20052;-86
2022/09/19 07:33:54;;;;;;;14.27;1.83;;;10.80;99.90;;;;;;5012322;28;20045;-86
2022/09/19 07:36:23;;;;;;;18.75;1.95;;;10.90;99.90;;;;;;5031142;28;20092;-85
2022/09/19 07:38:49;;;;;;;19.98;2.13;;;11.00;99.90;;;;;;5017473;28;20092;-85
2022/09/19 07:41:16;;;;;;;13.13;1.98;;;11.10;99.90;;;;;;5016642;28;20054;-83
2022/09/19 07:43:42;;;;;;;15.45;1.95;;;11.30;99.90;;;;;;5017367;28;20060;-85
2022/09/19 07:46:08;;;;;;;16.85;1.80;;;11.30;99.90;;;;;;5017534;28;20092;-86
2022/09/19 07:48:34;;;;;;;13.15;1.52;;;11.30;99.90;;;;;;5016676;28;20081;-86
2022/09/19 07:51:02;;;;;;;18.05;1.88;;;11.40;99.90;;;;;;5017296;28;20049;-84
2022/09/19 07:53:28;;;;;;;11.98;2.10;;;11.50;99.90;;;;;;5033939;28;20411;-85
2022/09/19 07:55:56;;;;;;;16.83;1.98;;;11.60;99.90;;;;;;5016877;28;20132;-85
2022/09/19 07:58:23;;;;;;;12.32;1.70;;;11.60;99.90;;;;;;5017284;28;20042;-85
2022/09/19 08:00:50;;;;;;;20.70;2.05;;;11.70;99.90;;;;;;5017893;28;20095;-87
2022/09/19 08:03:18;;;;;;;13.60;2.22;;;11.90;99.90;;;;;;5016489;28;20068;-84
2022/09/19 08:05:47;;;;;;;10.70;1.70;;;12.00;99.90;;;;;;5017242;28;20116;-86
2022/09/19 08:08:15;;;;;;;20.25;1.70;;;12.10;99.90;;;;;;5018532;28;20092;-89
2022/09/19 08:10:41;;;;;;;10.98;1.52;;;12.20;99.90;;;;;;5033789;28;20151;-86
2022/09/19 08:13:09;;;;;;;20.45;2.45;;;12.30;99.90;;;;;;5018275;28;20050;-87
2022/09/19 08:15:35;;;;;;;17.00;2.03;;;12.40;99.90;;;;;;5016362;28;20042;-85
2022/09/19 08:18:03;;;;;;;12.63;1.88;;;12.60;99.90;;;;;;5017363;28;20045;-86
2022/09/19 08:20:31;;;;;;;13.13;1.92;;;12.80;99.90;;;;;;5033077;28;20369;-86
2022/09/19 08:23:05;;;;;;;15.70;2.03;;;12.90;99.90;;;;;;5033227;28;20049;-86
2022/09/19 08:25:33;;;;;;;16.77;1.85;;;13.00;99.90;;;;;;5017020;28;20108;-87
2022/09/19 08:27:59;;;;;;;15.80;2.03;;;13.00;99.90;;;;;;5015858;28;20046;-86
2022/09/19 08:30:29;;;;;;;14.38;2.13;;;13.00;99.90;;;;;;5017079;28;20108;-87
2022/09/19 08:32:56;;;;;;;16.13;2.45;;;13.10;99.90;;;;;;5017049;28;20042;-86
2022/09/19 08:35:22;;;;;;;18.95;2.30;;;13.20;99.90;;;;;;5016702;28;20054;-86
2022/09/19 08:37:58;;;;;;;15.75;1.95;;;13.30;99.90;;;;;;5015650;28;20049;-85
2022/09/19 08:40:32;;;;;;;17.80;1.83;;;13.40;99.90;;;;;;5016251;28;20085;-84
2022/09/19 08:43:10;;;;;;;19.73;2.28;;;13.50;99.90;;;;;;5016287;28;20038;-86
2022/09/19 08:46:14;;;;;;;17.15;1.80;;;13.50;99.90;;;;;;5016534;28;20049;-89
2022/09/19 08:48:55;;;;;;;12.50;1.90;;;13.70;99.90;;;;;;5031464;28;20403;-88
2022/09/19 08:51:31;;;;;;;16.95;2.00;;;13.80;99.90;;;;;;5016178;28;20092;-86
2022/09/19 08:54:30;;;;;;;18.95;2.50;;;13.90;99.90;;;;;;5016832;28;20057;-91
2022/09/19 08:56:57;;;;;;;11.70;1.60;;;14.20;99.90;;;;;;5015252;28;20053;-90
2022/09/19 08:59:26;;;;;;;12.43;1.75;;;14.50;99.90;;;;;;5015282;28;20184;-89
2022/09/19 09:01:58;;;;;;;12.30;1.67;;;14.70;99.90;;;;;;5015907;28;20050;-90
2022/09/19 09:04:30;;;;;;;12.95;2.28;;;15.00;99.90;;;;;;5016149;28;20053;-87
2022/09/19 09:07:17;;;;;;;11.07;1.52;;;15.50;99.90;;;;;;5032078;28;20050;-85
2022/09/19 09:09:52;;;;;;;11.10;1.77;;;15.60;99.90;;;;;;5031131;28;20057;-87
2022/09/19 09:12:27;;;;;;;15.40;1.98;;;15.30;99.90;;;;;;5014255;28;20140;-88
2022/09/19 09:15:24;;;;;;;12.05;2.03;;;15.10;99.90;;;;;;5016095;28;20503;-88
2022/09/19 09:17:53;;;;;;;10.18;1.77;;;15.50;99.90;;;;;;5016097;28;20100;-89
2022/09/19 09:20:46;;;;;;;13.45;1.80;;;15.90;99.90;;;;;;5031608;28;20045;-88
2022/09/19 09:23:31;;;;;;;13.82;1.95;;;15.70;99.90;;;;;;5014901;28;20141;-93
2022/09/19 09:26:06;;;;;;;13.05;1.75;;;15.60;99.90;;;;;;5048222;28;20054;-86
2022/09/19 09:28:55;;;;;;;12.60;2.05;;;15.60;99.90;;;;;;4998345;28;20050;-87
2022/09/19 09:31:30;;;;;;;13.93;1.80;;;15.50;99.90;;;;;;5048029;28;20058;-90
2022/09/19 09:34:03;;;;;;;15.90;1.77;;;15.40;99.90;;;;;;5014441;28;20242;-88
2022/09/19 09:36:36;;;;;;;19.83;2.53;;;15.30;99.90;;;;;;5014610;28;20132;-88
2022/09/19 09:39:13;;;;;;;18.77;2.30;;;15.20;99.90;;;;;;5015802;28;20053;-87
2022/09/19 09:41:45;;;;;;;14.82;1.77;;;15.60;99.90;;;;;;5015830;28;20050;-86
2022/09/19 09:44:15;;;;;;;7.25;1.25;;;15.80;99.90;;;;;;5048871;28;20050;-85
2022/09/19 09:46:53;;;;;;;11.70;1.95;;;15.80;99.90;;;;;;5015926;28;20054;-87
2022/09/19 09:49:29;;;;;;;10.13;1.58;;;15.70;99.90;;;;;;5015196;28;20125;-87
2022/09/19 09:52:06;;;;;;;10.20;1.67;;;15.40;99.90;;;;;;5047529;28;20052;-88
2022/09/19 09:57:40;;;;;;;15.18;2.13;;;14.90;99.90;;;;;;5015382;28;20053;-86
2022/09/19 10:03:34;;;;;;;12.57;2.10;;;14.50;99.90;;;;;;5016316;28;20151;-86
2022/09/19 10:06:25;;;;;;;10.73;1.65;;;14.40;99.90;;;;;;5017310;28;20176;-87
2022/09/19 10:09:01;;;;;;;14.52;2.20;;;14.20;99.90;;;;;;5016585;28;20053;-86
2022/09/19 10:11:45;;;;;;;13.88;2.00;;;14.10;99.90;;;;;;5019169;28;20085;-91
2022/09/19 10:14:21;;;;;;;12.02;1.83;;;14.30;99.90;;;;;;5051516;28;20062;-86
2022/09/19 10:16:52;;;;;;;12.13;2.08;;;15.20;99.90;;;;;;5019419;28;20053;-86
2022/09/19 10:19:33;;;;;;;13.88;2.35;;;15.90;99.90;;;;;;5015924;28;20195;-87
2022/09/19 10:22:02;;;;;;;7.57;1.85;;;16.70;99.90;;;;;;5020022;28;20057;-86
2022/09/19 10:24:55;;;;;;;12.15;1.58;;;17.40;99.90;;;;;;5018675;28;20046;-87
2022/09/19 10:27:35;;;;;;;14.02;2.20;;;17.60;99.90;;;;;;5022196;28;20053;-87
2022/09/19 10:30:04;;;;;;;11.87;1.93;;;17.60;99.90;;;;;;5016900;28;20046;-86
2022/09/19 10:32:37;;;;;;;12.48;2.03;;;17.60;99.90;;;;;;5019562;28;20132;-89
2022/09/19 10:35:28;;;;;;;9.57;1.90;;;17.90;99.90;;;;;;5017449;28;20124;-88
2022/09/19 10:38:01;;;;;;;8.20;1.50;;;17.50;99.90;;;;;;5016508;28;20053;-84
2022/09/19 10:40:30;;;;;;;7.03;1.30;;;16.80;99.90;;;;;;5046548;28;20140;-84
2022/09/19 10:42:58;;;;;;;6.88;1.10;;;15.80;99.90;;;;;;5014436;28;20046;-84
2022/09/19 10:45:35;;;;;;;7.72;1.50;;;15.00;99.90;;;;;;5014913;28;20132;-86
2022/09/19 10:48:28;;;;;;;9.90;1.70;;;14.40;99.90;;;;;;5015177;28;20129;-88
2022/09/19 10:50:55;;;;;;;9.60;1.60;;;14.60;99.90;;;;;;5015450;28;20042;-86
2022/09/19 10:53:26;;;;;;;8.80;1.33;;;15.70;99.90;;;;;;5013895;28;20054;-86
2022/09/19 10:55:53;;;;;;;10.10;1.55;;;16.70;99.90;;;;;;5015052;28;20125;-84
2022/09/19 10:58:28;;;;;;;11.57;1.80;;;17.30;99.90;;;;;;5014205;28;20085;-85
2022/09/19 11:01:01;;;;;;;11.68;1.65;;;17.80;99.90;;;;;;5014172;28;20803;-90
2022/09/19 11:03:39;;;;;;;9.93;1.85;;;18.30;99.90;;;;;;5013229;28;20057;-86
2022/09/19 11:06:15;;;;;;;10.13;1.75;;;18.60;99.90;;;;;;5014736;28;20105;-86
2022/09/19 11:08:44;;;;;;;8.82;1.88;;;18.80;99.90;;;;;;5014035;28;20049;-89
2022/09/19 11:11:20;;;;;;;10.30;1.60;;;18.80;99.90;;;;;;5012339;28;20103;-86
2022/09/19 11:14:06;;;;;;;10.10;1.83;;;18.90;99.90;;;;;;5029538;28;20046;-86
2022/09/19 11:16:45;;;;;;;8.43;1.60;;;18.90;99.90;;;;;;5012749;28;20046;-87
2022/09/19 11:19:26;;;;;;;9.98;1.63;;;18.80;99.90;;;;;;5013879;28;20054;-85
2022/09/19 11:22:21;;;;;;;7.78;1.80;;;18.70;99.90;;;;;;5013270;28;20064;-87
2022/09/19 11:25:02;;;;;;;6.78;1.45;;;18.50;99.90;;;;;;5045254;28;20057;-86
2022/09/19 11:27:49;;;;;;;10.38;1.58;;;18.10;99.90;;;;;;5013926;28;20518;-86
2022/09/19 11:30:23;;;;;;;8.75;1.73;;;17.90;99.90;;;;;;5046371;28;20050;-87
2022/09/19 11:33:21;;;;;;;8.88;1.88;;;18.40;99.90;;;;;;5013757;28;20048;-88
2022/09/19 11:35:55;;;;;;;6.78;1.42;;;18.60;99.90;;;;;;5013435;28;20050;-91
2022/09/19 11:38:21;;;;;;;12.75;1.92;;;18.40;99.90;;;;;;5013241;28;20132;-90
2022/09/19 11:41:06;;;;;;;8.27;1.50;;;18.40;99.90;;;;;;5012873;28;20553;-90
2022/09/19 11:44:06;;;;;;;9.77;1.80;;;18.60;99.90;;;;;;5029766;28;20085;-87
2022/09/19 11:46:52;;;;;;;12.10;2.03;;;18.70;99.90;;;;;;5029603;28;20042;-93
2022/09/19 11:49:27;;;;;;;13.27;1.75;;;18.50;99.90;;;;;;5014010;28;20503;-88
2022/09/19 11:52:11;;;;;;;9.27;1.58;;;17.90;99.90;;;;;;5029388;28;20050;-89
2022/09/19 11:54:49;;;;;;;15.25;2.33;;;17.00;99.90;;;;;;5045492;28;20045;-88
2022/09/19 11:57:23;;;;;;;23.25;2.58;;;16.00;99.90;;;;;;5029232;28;20175;-84
2022/09/19 12:00:06;;;;;;;13.68;2.00;;;14.90;99.90;;;;;;5028969;28;20415;-88
2022/09/19 12:02:44;;;;;;;11.32;1.75;;;14.00;99.90;;;;;;5045860;28;20527;-86
2022/09/19 12:05:34;;;;;;;9.82;1.20;;;13.30;99.90;;;;;;5029935;28;20050;-91
2022/09/19 12:08:19;;;;;;;15.00;1.38;;;12.80;99.90;;;;;;5014185;28;20076;-88
2022/09/19 12:11:13;;;;;;;14.27;1.60;;;12.40;99.90;;;;;;5018821;28;20042;-92
2022/09/19 12:13:47;;;;;;;16.83;1.75;;;12.20;99.90;;;;;;5049271;28;20085;-93
2022/09/19 12:16:21;;;;;;;13.00;1.60;;;12.20;99.90;;;;;;5015548;28;20074;-92
2022/09/19 12:18:55;;;;;;;12.23;1.67;;;12.20;99.90;;;;;;5048089;28;20049;-92
2022/09/19 12:21:33;;;;;;;17.95;1.98;;;12.20;99.90;;;;;;5048298;28;20542;-93
2022/09/19 12:26:54;;;;;;;26.52;2.65;;;12.50;99.90;;;;;;5019031;28;20046;-92
2022/09/19 12:29:38;;;;;;;15.63;1.83;;;12.70;99.90;;;;;;5001839;28;20038;-93
2022/09/19 12:32:16;;;;;;;12.48;1.80;;;13.00;99.90;;;;;;5032857;28;20052;-92
2022/09/19 12:34:51;;;;;;;12.85;1.80;;;13.20;99.90;;;;;;5032446;28;20127;-94
2022/09/19 12:37:36;;;;;;;11.07;1.52;;;13.30;99.90;;;;;;5049332;28;20435;-94
2022/09/19 12:40:05;;;;;;;22.15;1.98;;;13.50;99.90;;;;;;5032284;28;20523;-92
2022/09/19 12:42:44;;;;;;;7.57;1.50;;;13.60;99.90;;;;;;5049181;28;20103;-91
2022/09/19 12:45:22;;;;;;;17.45;2.28;;;13.90;99.90;;;;;;5032131;28;20057;-91
2022/09/19 12:48:23;;;;;;;10.52;1.90;;;14.20;99.90;;;;;;4999306;28;20107;-89
2022/09/19 12:50:54;;;;;;;16.52;2.38;;;14.20;99.90;;;;;;5015427;28;20133;-89
2022/09/19 12:53:38;;;;;;;15.85;1.95;;;14.10;99.90;;;;;;5047956;28;20088;-90
2022/09/19 12:56:16;;;;;;;14.55;2.00;;;14.20;99.90;;;;;;5031944;28;20054;-90
2022/09/19 12:58:45;;;;;;;11.48;1.90;;;14.30;99.90;;;;;;5048708;28;20465;-91
2022/09/19 13:01:24;;;;;;;14.48;2.10;;;14.30;99.90;;;;;;5031927;28;20046;-91
2022/09/19 13:04:25;;;;;;;20.38;2.28;;;14.30;99.90;;;;;;5015128;28;20141;-93
2022/09/19 13:06:53;;;;;;;12.90;2.05;;;14.30;99.90;;;;;;5015251;28;20100;-92
2022/09/19 13:09:25;;;;;;;9.52;1.63;;;14.50;99.90;;;;;;5015004;28;20085;-91
2022/09/19 13:11:59;;;;;;;14.05;2.13;;;14.50;99.90;;;;;;5048287;28;20054;-90
2022/09/19 13:14:30;;;;;;;20.20;2.03;;;14.50;99.90;;;;;;5048188;28;20645;-90
2022/09/19 13:25:40;;;;;;;14.57;2.15;;;14.30;99.90;;;;;;5015347;28;20065;-87
2022/09/19 13:28:21;;;;;;;17.45;1.92;;;14.30;99.90;;;;;;5015290;28;20050;-90
2022/09/19 13:30:49;;;;;;;12.60;1.83;;;14.40;99.90;;;;;;5014928;28;20042;-87